createdAt,value
2017-05-25T00:02:12.273Z,7.20
2017-05-25T00:04:42.042Z,9.34
2017-05-25T00:07:11.818Z,7.08
2017-05-25T00:09:41.785Z,7.28
2017-05-25T00:12:11.782Z,6.56
2017-05-25T00:14:42.436Z,6.36
2017-05-25T00:17:12.309Z,8.72
2017-05-25T00:19:42.062Z,8.96
2017-05-25T00:22:11.123Z,5.62
2017-05-25T00:24:41.575Z,7.32
2017-05-25T00:27:11.387Z,6.54
2017-05-25T00:29:42.103Z,7.42
2017-05-25T00:32:11.137Z,12.78
2017-05-25T00:34:40.931Z,5.56
2017-05-25T00:37:10.768Z,7.20
2017-05-25T00:39:40.613Z,6.98
2017-05-25T00:42:11.863Z,6.30
2017-05-25T00:44:41.631Z,9.98
2017-05-25T00:47:11.422Z,6.04
2017-05-25T00:49:41.247Z,6.58
2017-05-25T00:52:11.428Z,9.48
2017-05-25T00:54:41.175Z,4.84
2017-05-25T00:57:11.086Z,5.70
2017-05-25T00:59:41.073Z,9.08
2017-05-25T01:02:10.852Z,9.00
2017-05-25T01:04:41.212Z,7.12
2017-05-25T01:07:10.985Z,10.42
2017-05-25T01:09:40.764Z,11.02
2017-05-25T01:12:09.890Z,10.94
2017-05-25T01:14:40.292Z,6.04
2017-05-25T01:17:10.325Z,5.92
2017-05-25T01:19:40.414Z,9.00
2017-05-25T01:22:10.274Z,6.20
2017-05-25T01:24:40.174Z,8.70
2017-05-25T01:27:13.868Z,7.44
2017-05-25T01:29:43.679Z,6.60
2017-05-25T01:32:13.606Z,8.94
2017-05-25T01:34:43.004Z,8.72
2017-05-25T01:37:12.925Z,11.18
2017-05-25T01:39:43.706Z,10.22
2017-05-25T01:42:13.541Z,10.44
2017-05-25T01:44:43.890Z,12.48
2017-05-25T01:47:13.831Z,10.46
2017-05-25T01:49:43.661Z,13.04
2017-05-25T01:52:14.420Z,11.90
2017-05-25T01:54:44.456Z,9.08
2017-05-25T01:57:14.590Z,10.00
2017-05-25T01:59:44.429Z,8.20
2017-05-25T02:02:14.373Z,8.24
2017-05-25T02:04:44.156Z,9.00
2017-05-25T02:07:20.164Z,8.56
2017-05-25T02:09:50.382Z,9.86
2017-05-25T02:12:20.320Z,8.18
2017-05-25T02:14:50.183Z,9.34
2017-05-25T02:17:20.245Z,8.18
2017-05-25T02:19:49.991Z,7.64
2017-05-25T02:22:19.041Z,8.88
2017-05-25T02:24:48.833Z,11.14
2017-05-25T02:27:18.628Z,11.74
2017-05-25T02:29:48.871Z,9.30
2017-05-25T02:32:18.627Z,9.06
2017-05-25T02:34:48.395Z,8.60
2017-05-25T02:37:18.511Z,9.48
2017-05-25T02:39:48.254Z,9.98
2017-05-25T02:42:18.048Z,13.38
2017-05-25T02:44:47.909Z,11.56
2017-05-25T02:47:18.354Z,8.94
2017-05-25T02:51:07.257Z,9.00
2017-05-25T02:53:37.013Z,10.18
2017-05-25T02:56:07.150Z,8.80
2017-05-25T02:58:37.610Z,9.78
2017-05-25T03:01:08.131Z,9.12
2017-05-25T03:03:38.262Z,8.86
2017-05-25T03:06:08.021Z,10.20
2017-05-25T03:08:37.738Z,7.78
2017-05-25T03:11:08.460Z,9.86
2017-05-25T03:16:47.868Z,10.98
2017-05-25T03:19:17.916Z,9.32
2017-05-25T03:21:47.848Z,12.96
2017-05-25T03:24:17.897Z,10.44
2017-05-25T03:26:47.635Z,9.42
2017-05-25T03:29:17.382Z,11.28
2017-05-25T03:31:47.492Z,10.84
2017-05-25T03:34:17.810Z,11.54
2017-05-25T03:36:47.959Z,12.24
2017-05-25T03:39:17.702Z,10.78
2017-05-25T03:41:47.796Z,13.30
2017-05-25T03:44:18.199Z,10.72
2017-05-25T03:46:48.603Z,12.42
2017-05-25T03:49:18.730Z,13.26
2017-05-25T03:51:48.475Z,12.02
2017-05-25T03:54:18.228Z,12.28
2017-05-25T03:56:48.448Z,11.72
2017-05-25T03:59:18.264Z,13.68
2017-05-25T04:01:47.972Z,10.30
2017-05-25T04:04:17.762Z,12.12
2017-05-25T04:06:47.540Z,14.68
2017-05-25T04:09:17.385Z,12.18
2017-05-25T04:11:47.149Z,12.72
2017-05-25T04:14:16.954Z,12.64
2017-05-25T04:16:46.696Z,11.76
2017-05-25T04:19:16.709Z,14.58
2017-05-25T04:21:46.484Z,11.82
2017-05-25T04:24:16.267Z,13.36
2017-05-25T04:26:46.343Z,16.44
2017-05-25T04:29:16.326Z,13.42
2017-05-25T04:31:46.488Z,13.46
2017-05-25T04:34:16.295Z,16.62
2017-05-25T04:36:46.334Z,11.02
2017-05-25T04:39:17.400Z,14.66
2017-05-25T04:41:47.184Z,12.72
2017-05-25T04:44:17.789Z,13.48
2017-05-25T04:46:47.569Z,10.58
2017-05-25T04:49:17.580Z,11.92
2017-05-25T04:52:18.051Z,10.66
2017-05-25T04:54:48.105Z,11.76
2017-05-25T04:57:17.913Z,11.20
2017-05-25T04:59:48.035Z,11.34
2017-05-25T05:02:17.867Z,15.52
2017-05-25T05:04:46.878Z,12.34
2017-05-25T05:07:17.050Z,12.24
2017-05-25T05:09:47.149Z,14.94
2017-05-25T05:12:16.991Z,13.00
2017-05-25T05:14:46.750Z,12.56
2017-05-25T05:17:16.611Z,11.40
2017-05-25T05:19:46.400Z,11.82
2017-05-25T05:22:18.021Z,10.18
2017-05-25T05:25:50.125Z,13.96
2017-05-25T05:28:20.128Z,14.36
2017-05-25T05:30:49.845Z,12.62
2017-05-25T05:33:19.623Z,10.94
2017-05-25T05:35:49.392Z,12.66
2017-05-25T05:38:19.934Z,10.92
2017-05-25T05:40:49.727Z,13.20
2017-05-25T05:43:19.557Z,12.60
2017-05-25T05:45:50.280Z,15.94
2017-05-25T05:48:19.357Z,13.02
2017-05-25T05:50:49.468Z,12.72
2017-05-25T05:53:18.513Z,14.00
2017-05-25T05:55:48.409Z,15.70
2017-05-25T05:58:18.249Z,16.46
2017-05-25T06:00:48.860Z,16.28
2017-05-25T06:03:19.718Z,14.80
2017-05-25T06:05:49.796Z,20.22
2017-05-25T06:08:19.715Z,19.40
2017-05-25T06:10:49.623Z,18.02
2017-05-25T06:13:20.345Z,17.96
2017-05-25T06:15:50.189Z,17.32
2017-05-25T06:18:20.069Z,22.48
2017-05-25T06:20:49.832Z,19.64
2017-05-25T06:23:20.234Z,19.20
2017-05-25T06:25:50.061Z,19.06
2017-05-25T06:28:19.037Z,18.18
2017-05-25T06:30:49.011Z,17.00
2017-05-25T06:33:18.801Z,16.62
2017-05-25T06:35:48.619Z,19.88
2017-05-25T06:38:18.521Z,24.62
2017-05-25T06:40:48.418Z,22.54
2017-05-25T06:43:18.329Z,20.60
2017-05-25T06:45:48.410Z,19.52
2017-05-25T06:48:18.338Z,23.72
2017-05-25T06:50:48.198Z,20.74
2017-05-25T06:53:19.398Z,21.22
2017-05-25T06:55:48.604Z,20.90
2017-05-25T06:58:18.526Z,19.26
2017-05-25T07:00:48.529Z,19.78
2017-05-25T07:03:18.473Z,18.38
2017-05-25T07:05:48.385Z,19.78
2017-05-25T07:08:18.201Z,17.32
2017-05-25T07:10:48.015Z,19.00
2017-05-25T07:13:18.083Z,19.46
2017-05-25T07:15:53.146Z,17.66
2017-05-25T07:18:22.985Z,21.88
2017-05-25T07:20:52.934Z,16.00
2017-05-25T07:23:23.449Z,17.20
2017-05-25T07:25:53.266Z,18.92
2017-05-25T07:28:23.538Z,15.02
2017-05-25T07:30:53.616Z,15.72
2017-05-25T07:33:23.497Z,15.78
2017-05-25T07:35:53.445Z,16.32
2017-05-25T07:38:22.506Z,14.90
2017-05-25T07:40:53.084Z,14.92
2017-05-25T07:43:22.961Z,14.94
2017-05-25T07:45:51.971Z,12.08
2017-05-25T07:48:22.858Z,15.00
2017-05-25T07:50:53.347Z,15.08
2017-05-25T07:53:24.884Z,11.96
2017-05-25T07:55:55.924Z,11.06
2017-05-25T07:58:26.930Z,12.04
2017-05-25T08:00:59.329Z,13.10
2017-05-25T08:03:31.953Z,10.42
2017-05-25T08:06:04.282Z,8.72
2017-05-25T08:08:34.178Z,9.42
2017-05-25T08:11:05.060Z,9.78
2017-05-25T08:13:35.994Z,10.12
2017-05-25T08:16:13.339Z,10.24
2017-05-25T08:18:42.453Z,10.10
2017-05-25T08:21:12.423Z,9.38
2017-05-25T08:23:42.306Z,9.98
2017-05-25T08:26:16.023Z,9.66
2017-05-25T08:28:45.881Z,11.14
2017-05-25T08:31:15.818Z,8.64
2017-05-25T08:33:44.985Z,9.62
2017-05-25T08:36:14.909Z,10.36
2017-05-25T08:38:49.752Z,10.16
2017-05-25T08:41:21.486Z,12.04
2017-05-25T08:43:51.393Z,10.06
2017-05-25T08:46:22.316Z,10.12
2017-05-25T08:48:52.120Z,9.22
2017-05-25T08:51:22.946Z,7.84
2017-05-25T08:53:53.587Z,8.86
2017-05-25T08:56:25.355Z,7.74
2017-05-25T08:58:55.244Z,10.22
2017-05-25T09:01:26.743Z,6.54
2017-05-25T09:03:56.711Z,10.12
2017-05-25T09:06:26.879Z,7.50
2017-05-25T09:08:56.822Z,6.66
2017-05-25T09:12:46.310Z,7.46
2017-05-25T09:15:16.542Z,6.54
2017-05-25T09:17:46.538Z,6.70
2017-05-25T09:20:21.514Z,6.70
2017-05-25T09:22:54.272Z,5.84
2017-05-25T09:25:24.682Z,6.26
2017-05-25T09:27:54.527Z,5.06
2017-05-25T09:30:27.488Z,5.18
2017-05-25T09:32:57.957Z,5.26
2017-05-25T09:35:30.125Z,5.10
2017-05-25T09:38:00.850Z,5.20
2017-05-25T09:40:34.116Z,4.46
2017-05-25T09:43:04.172Z,3.80
2017-05-25T09:45:36.296Z,4.58
2017-05-25T09:48:08.697Z,4.22
2017-05-25T09:50:38.763Z,5.78
2017-05-25T09:53:10.658Z,4.56
2017-05-25T09:55:41.330Z,4.64
2017-05-25T09:58:11.402Z,4.82
2017-05-25T10:00:43.133Z,3.80
2017-05-25T10:03:13.987Z,5.18
2017-05-25T10:05:51.155Z,4.56
2017-05-25T10:08:21.156Z,5.02
2017-05-25T10:10:53.094Z,4.22
2017-05-25T10:13:23.670Z,4.68
2017-05-25T10:15:55.350Z,9.42
2017-05-25T10:18:26.302Z,4.48
2017-05-25T10:20:59.246Z,4.68
2017-05-25T10:23:29.875Z,4.88
2017-05-25T10:26:00.298Z,4.64
2017-05-25T10:28:32.422Z,4.14
2017-05-25T10:31:05.896Z,3.62
2017-05-25T10:33:39.894Z,4.06
2017-05-25T10:36:13.315Z,4.74
2017-05-25T10:38:43.496Z,3.80
2017-05-25T10:41:18.511Z,3.88
2017-05-25T10:43:48.519Z,3.34
2017-05-25T10:46:19.260Z,3.00
2017-05-25T10:48:49.224Z,3.52
2017-05-25T10:51:20.262Z,3.96
2017-05-25T10:53:51.335Z,3.34
2017-05-25T10:56:23.346Z,4.62
2017-05-25T10:58:53.804Z,3.54
2017-05-25T11:01:27.545Z,2.70
2017-05-25T11:03:58.492Z,3.00
2017-05-25T11:06:29.776Z,3.54
2017-05-25T11:08:59.646Z,2.40
2017-05-25T11:11:33.298Z,4.30
2017-05-25T11:14:04.936Z,3.48
2017-05-25T11:16:36.422Z,2.70
2017-05-25T11:19:11.688Z,2.72
2017-05-25T11:21:41.650Z,3.34
2017-05-25T11:24:12.687Z,2.54
2017-05-25T11:26:44.087Z,3.04
2017-05-25T11:29:19.722Z,3.04
2017-05-25T11:31:59.066Z,2.88
2017-05-25T11:35:32.783Z,3.16
2017-05-25T11:38:05.364Z,3.50
2017-05-25T11:40:35.493Z,2.50
2017-05-25T11:43:11.041Z,3.04
2017-05-25T11:45:43.580Z,4.00
2017-05-25T11:48:15.302Z,2.64
2017-05-25T11:50:48.686Z,2.98
2017-05-25T11:53:19.977Z,2.60
2017-05-25T11:55:53.992Z,2.94
2017-05-25T11:58:26.972Z,2.28
2017-05-25T12:01:02.538Z,2.52
2017-05-25T12:03:33.088Z,2.42
2017-05-25T12:06:05.476Z,2.78
2017-05-25T12:08:39.174Z,2.82
2017-05-25T12:11:11.730Z,2.50
2017-05-25T12:13:47.286Z,2.82
2017-05-25T12:16:20.791Z,2.98
2017-05-25T12:21:38.645Z,3.40
2017-05-25T12:24:14.107Z,3.16
2017-05-25T12:26:49.076Z,2.50
2017-05-25T12:29:19.539Z,2.98
2017-05-25T12:31:52.059Z,3.12
2017-05-25T12:34:24.378Z,3.20
2017-05-25T12:36:59.150Z,2.46
2017-05-25T12:39:29.904Z,3.04
2017-05-25T12:41:59.814Z,3.58
2017-05-25T12:44:32.628Z,3.08
2017-05-25T12:47:05.023Z,3.64
2017-05-25T12:49:35.477Z,2.70
2017-05-25T12:52:09.262Z,2.84
2017-05-25T12:54:40.651Z,3.18
2017-05-25T12:58:13.734Z,2.64
2017-05-25T13:00:49.569Z,4.40
2017-05-25T13:03:21.042Z,3.00
2017-05-25T13:05:52.648Z,3.38
2017-05-25T13:08:23.312Z,2.92
2017-05-25T13:10:55.763Z,3.00
2017-05-25T13:13:27.046Z,2.68
2017-05-25T13:16:01.398Z,2.90
2017-05-25T13:18:34.164Z,3.80
2017-05-25T13:21:09.441Z,2.96
2017-05-25T13:23:39.525Z,3.12
2017-05-25T13:26:11.410Z,3.62
2017-05-25T13:28:43.847Z,2.28
2017-05-25T13:31:18.501Z,2.56
2017-05-25T13:33:49.454Z,2.54
2017-05-25T13:36:21.007Z,3.12
2017-05-25T13:38:53.403Z,4.22
2017-05-25T13:41:26.153Z,3.48
2017-05-25T13:44:01.309Z,2.50
2017-05-25T13:46:30.554Z,2.90
2017-05-25T13:49:00.959Z,3.00
2017-05-25T13:51:30.952Z,3.44
2017-05-25T13:54:00.983Z,2.70
2017-05-25T13:56:30.951Z,2.34
2017-05-25T13:59:00.889Z,2.66
2017-05-25T14:01:39.383Z,3.92
2017-05-25T14:04:16.171Z,4.86
2017-05-25T14:06:50.232Z,2.38
2017-05-25T14:12:02.570Z,2.34
2017-05-25T14:14:33.707Z,2.82
2017-05-25T14:17:03.742Z,2.96
2017-05-25T14:22:25.864Z,3.40
2017-05-25T14:25:01.786Z,3.04
2017-05-25T14:27:31.851Z,3.34
2017-05-25T14:32:40.725Z,2.42
2017-05-25T14:35:16.942Z,3.20
2017-05-25T14:37:48.889Z,3.20
2017-05-25T14:40:22.290Z,5.66
2017-05-25T14:42:53.909Z,3.14
2017-05-25T14:45:27.765Z,3.26
2017-05-25T14:48:00.660Z,3.46
2017-05-25T14:50:33.784Z,4.48
2017-05-25T14:55:46.625Z,3.56
2017-05-25T14:58:18.251Z,3.22
2017-05-25T15:00:52.080Z,4.00
2017-05-25T15:03:21.860Z,3.70
2017-05-25T15:05:56.239Z,5.16
2017-05-25T15:08:29.329Z,3.90
2017-05-25T15:11:15.820Z,3.88
2017-05-25T15:13:48.672Z,4.38
2017-05-25T15:16:20.300Z,3.54
2017-05-25T15:18:55.271Z,3.32
2017-05-25T15:21:37.678Z,3.10
2017-05-25T15:24:10.140Z,3.42
2017-05-25T15:26:41.854Z,3.34
2017-05-25T15:29:15.556Z,3.48
2017-05-25T15:31:52.464Z,3.58
2017-05-25T15:37:02.046Z,3.52
2017-05-25T15:39:34.175Z,4.00
2017-05-25T15:42:08.106Z,5.76
2017-05-25T15:44:38.515Z,5.86
2017-05-25T15:47:18.395Z,3.90
2017-05-25T15:49:49.901Z,3.54
2017-05-25T15:53:23.944Z,3.88
2017-05-25T15:56:07.240Z,3.76
2017-05-25T15:58:39.088Z,3.74
2017-05-25T16:01:10.030Z,3.90
2017-05-25T16:03:42.962Z,4.46
2017-05-25T16:06:13.032Z,4.06
2017-05-25T16:08:44.389Z,3.64
2017-05-25T16:11:16.145Z,4.54
2017-05-25T16:13:46.751Z,3.98
2017-05-25T16:16:48.488Z,4.06
2017-05-25T16:19:19.564Z,4.02
2017-05-25T16:21:51.215Z,3.40
2017-05-25T16:24:26.157Z,4.18
2017-05-25T16:26:56.355Z,3.56
2017-05-25T16:29:27.157Z,3.20
2017-05-25T16:31:59.295Z,3.04
2017-05-25T16:35:49.523Z,3.86
2017-05-25T16:38:20.181Z,4.00
2017-05-25T16:40:53.806Z,3.18
2017-05-25T16:43:23.974Z,3.24
2017-05-25T16:45:54.571Z,3.40
2017-05-25T16:48:24.573Z,3.40
2017-05-25T16:50:56.345Z,3.64
2017-05-25T16:53:27.038Z,3.68
2017-05-25T16:55:59.648Z,3.48
2017-05-25T16:58:31.728Z,3.22
2017-05-25T17:01:09.877Z,3.74
2017-05-25T17:03:40.737Z,3.00
2017-05-25T17:06:14.565Z,4.08
2017-05-25T17:08:47.025Z,3.30
2017-05-25T17:11:21.176Z,3.56
2017-05-25T17:13:52.785Z,3.36
2017-05-25T17:16:27.108Z,3.90
2017-05-25T17:18:56.403Z,4.20
2017-05-25T17:21:34.521Z,3.14
2017-05-25T17:24:07.277Z,3.92
2017-05-25T17:26:42.880Z,3.78
2017-05-25T17:29:19.307Z,4.18
2017-05-25T17:31:51.238Z,3.14
2017-05-25T17:34:21.800Z,3.82
2017-05-25T17:36:53.573Z,3.94
2017-05-25T17:39:25.104Z,4.52
2017-05-25T17:41:57.431Z,4.58
2017-05-25T17:44:28.214Z,3.86
2017-05-25T17:47:05.404Z,5.98
2017-05-25T17:49:39.633Z,4.08
2017-05-25T17:52:14.079Z,3.92
2017-05-25T17:54:45.798Z,3.90
2017-05-25T17:57:20.196Z,4.56
2017-05-25T17:59:51.565Z,3.90
2017-05-25T18:02:25.110Z,4.00
2017-05-25T18:04:56.312Z,4.68
2017-05-25T18:07:26.643Z,4.24
2017-05-25T18:09:56.129Z,4.40
2017-05-25T18:12:28.017Z,4.34
2017-05-25T18:14:58.741Z,4.30
2017-05-25T18:17:30.028Z,5.94
2017-05-25T18:20:01.252Z,3.72
2017-05-25T18:22:34.595Z,4.54
2017-05-25T18:25:13.081Z,3.62
2017-05-25T18:27:44.191Z,5.32
2017-05-25T18:30:24.125Z,3.98
2017-05-25T18:32:55.037Z,4.20
2017-05-25T18:35:27.682Z,6.44
2017-05-25T18:37:58.845Z,3.32
2017-05-25T18:40:30.243Z,4.16
2017-05-25T18:43:00.322Z,3.14
2017-05-25T18:45:35.173Z,3.82
2017-05-25T18:48:08.973Z,3.58
2017-05-25T18:50:41.190Z,4.94
2017-05-25T18:53:15.344Z,5.50
2017-05-25T18:55:52.421Z,4.94
2017-05-25T18:58:23.205Z,5.04
2017-05-25T19:00:56.790Z,4.16
2017-05-25T19:03:28.191Z,4.08
2017-05-25T19:06:01.519Z,4.16
2017-05-25T19:08:31.526Z,4.32
2017-05-25T19:11:01.574Z,3.70
2017-05-25T19:13:32.451Z,6.26
2017-05-25T19:16:06.974Z,3.80
2017-05-25T19:18:38.409Z,6.86
2017-05-25T19:21:16.485Z,6.06
2017-05-25T19:23:53.371Z,3.40
2017-05-25T19:26:23.977Z,4.90
2017-05-25T19:28:55.893Z,5.52
2017-05-25T19:31:29.675Z,3.80
2017-05-25T19:34:01.694Z,4.30
2017-05-25T19:36:31.739Z,4.20
2017-05-25T19:39:06.310Z,5.04
2017-05-25T19:41:39.339Z,4.14
2017-05-25T19:44:11.497Z,9.24
2017-05-25T19:46:41.901Z,10.76
2017-05-25T19:49:13.266Z,3.86
2017-05-25T19:51:45.082Z,5.26
2017-05-25T19:54:18.348Z,3.84
2017-05-25T19:56:51.071Z,4.78
2017-05-25T19:59:30.687Z,4.18
2017-05-25T20:02:01.932Z,3.56
2017-05-25T20:04:36.443Z,4.58
2017-05-25T20:07:12.358Z,3.96
2017-05-25T20:09:42.982Z,4.96
2017-05-25T20:12:12.853Z,4.44
2017-05-25T20:14:42.821Z,4.66
2017-05-25T20:18:32.071Z,4.34
2017-05-25T20:21:01.939Z,5.08
2017-05-25T20:23:31.926Z,5.66
2017-05-25T20:26:04.251Z,6.24
2017-05-25T20:28:34.267Z,3.82
2017-05-25T20:31:05.830Z,5.08
2017-05-25T20:33:49.942Z,4.38
2017-05-25T20:36:19.876Z,5.14
2017-05-25T20:38:52.364Z,6.16
2017-05-25T20:41:21.751Z,4.08
2017-05-25T20:43:52.844Z,4.90
2017-05-25T20:46:22.922Z,5.04
2017-05-25T20:48:53.006Z,7.02
2017-05-25T20:51:23.909Z,4.56
2017-05-25T20:53:53.017Z,4.62
2017-05-25T20:56:23.674Z,5.64
2017-05-25T20:58:53.574Z,4.32
2017-05-25T21:01:23.470Z,4.58
2017-05-25T21:03:53.273Z,5.56
2017-05-25T21:06:23.261Z,5.08
2017-05-25T21:08:53.152Z,4.58
2017-05-25T21:11:24.006Z,6.04
2017-05-25T21:13:53.959Z,5.90
2017-05-25T21:16:23.870Z,6.18
2017-05-25T21:18:53.060Z,6.52
2017-05-25T21:21:23.056Z,7.12
2017-05-25T21:23:53.040Z,4.54
2017-05-25T21:26:22.941Z,4.50
2017-05-25T21:28:52.110Z,5.10
2017-05-25T21:31:22.113Z,5.80
2017-05-25T21:33:51.994Z,5.72
2017-05-25T21:36:21.913Z,5.38
2017-05-25T21:38:51.729Z,6.48
2017-05-25T21:41:27.344Z,5.20
2017-05-25T21:43:57.133Z,4.80
2017-05-25T21:46:27.087Z,6.24
2017-05-25T21:48:56.992Z,7.08
2017-05-25T21:51:26.974Z,5.68
2017-05-25T21:53:56.804Z,5.82
2017-05-25T21:56:27.608Z,7.34
2017-05-25T22:01:35.601Z,5.32
2017-05-25T22:04:05.993Z,5.40
2017-05-25T22:06:37.273Z,6.62
2017-05-25T22:09:13.419Z,5.06
2017-05-25T22:11:43.250Z,5.30
2017-05-25T22:14:12.337Z,4.82
2017-05-25T22:16:42.209Z,4.76
2017-05-25T22:19:12.061Z,5.38
2017-05-25T22:21:42.021Z,4.82
2017-05-25T22:24:11.850Z,9.28
2017-05-25T22:27:44.437Z,5.10
2017-05-25T22:30:14.895Z,6.86
2017-05-25T22:32:44.843Z,5.70
2017-05-25T22:35:14.849Z,5.36
2017-05-25T22:37:44.777Z,6.12
2017-05-25T22:40:13.980Z,5.78
2017-05-25T22:42:43.804Z,7.22
2017-05-25T22:45:13.848Z,6.68
2017-05-25T22:47:43.688Z,7.54
2017-05-25T22:50:13.601Z,8.70
2017-05-25T22:52:43.434Z,6.58
2017-05-25T22:55:14.202Z,5.86
2017-05-25T22:57:43.984Z,5.56
2017-05-25T23:00:15.013Z,6.50
2017-05-25T23:02:44.827Z,8.14
2017-05-25T23:05:15.018Z,6.36
2017-05-25T23:07:44.812Z,6.34
2017-05-25T23:10:15.921Z,6.80
2017-05-25T23:12:45.753Z,6.92
2017-05-25T23:15:16.300Z,7.34
2017-05-25T23:17:45.338Z,6.68
2017-05-25T23:20:15.196Z,7.12
2017-05-25T23:22:44.967Z,5.88
2017-05-25T23:25:14.814Z,8.56
2017-05-25T23:27:43.799Z,7.56
2017-05-25T23:30:13.064Z,6.52
2017-05-25T23:32:42.887Z,5.30
2017-05-25T23:35:12.885Z,5.14
2017-05-25T23:37:42.718Z,5.32
2017-05-25T23:40:11.809Z,5.94
2017-05-25T23:42:40.799Z,7.24
2017-05-25T23:45:10.842Z,6.22
2017-05-25T23:47:39.935Z,6.04
2017-05-25T23:50:09.767Z,6.10
2017-05-25T23:52:39.832Z,5.62
2017-05-25T23:55:10.167Z,6.32
2017-05-25T23:57:40.008Z,6.70
